sensor_id;sensor_type;location;lat;lon;timestamp;temperature;humidity
51801;DHT22;37855;53.204;6.568;2023-06-14T00:00:52;18.50;50.70
51801;DHT22;37855;53.204;6.568;2023-06-14T00:03:19;18.40;51.10
51801;DHT22;37855;53.204;6.568;2023-06-14T00:05:47;18.40;51.40
51801;DHT22;37855;53.204;6.568;2023-06-14T00:08:15;18.40;51.20
51801;DHT22;37855;53.204;6.568;2023-06-14T00:10:41;18.20;51.80
51801;DHT22;37855;53.204;6.568;2023-06-14T00:13:08;18.10;51.90
51801;DHT22;37855;53.204;6.568;2023-06-14T00:15:34;18.20;51.90
51801;DHT22;37855;53.204;6.568;2023-06-14T00:18:04;18.20;51.90
51801;DHT22;37855;53.204;6.568;2023-06-14T00:20:31;18.10;52.30
51801;DHT22;37855;53.204;6.568;2023-06-14T00:23:00;18.10;52.30
51801;DHT22;37855;53.204;6.568;2023-06-14T00:25:27;18.10;52.30
51801;DHT22;37855;53.204;6.568;2023-06-14T00:27:54;18.10;52.40
51801;DHT22;37855;53.204;6.568;2023-06-14T00:30:20;18.20;52.40
51801;DHT22;37855;53.204;6.568;2023-06-14T00:32:46;18.10;52.60
51801;DHT22;37855;53.204;6.568;2023-06-14T00:35:12;18.10;52.80
51801;DHT22;37855;53.204;6.568;2023-06-14T00:37:39;18.10;52.80
51801;DHT22;37855;53.204;6.568;2023-06-14T00:40:05;18.00;52.80
51801;DHT22;37855;53.204;6.568;2023-06-14T00:42:31;18.10;53.00
51801;DHT22;37855;53.204;6.568;2023-06-14T00:44:57;18.10;53.00
51801;DHT22;37855;53.204;6.568;2023-06-14T00:47:24;18.00;53.30
51801;DHT22;37855;53.204;6.568;2023-06-14T00:49:50;18.00;53.20
51801;DHT22;37855;53.204;6.568;2023-06-14T00:52:19;18.00;53.40
51801;DHT22;37855;53.204;6.568;2023-06-14T00:54:46;17.90;53.60
51801;DHT22;37855;53.204;6.568;2023-06-14T00:57:14;18.00;53.60
51801;DHT22;37855;53.204;6.568;2023-06-14T00:59:45;17.90;53.80
51801;DHT22;37855;53.204;6.568;2023-06-14T01:02:11;17.80;53.90
51801;DHT22;37855;53.204;6.568;2023-06-14T01:04:39;17.80;54.00
51801;DHT22;37855;53.204;6.568;2023-06-14T01:07:25;17.80;54.20
51801;DHT22;37855;53.204;6.568;2023-06-14T01:12:50;17.90;54.30
51801;DHT22;37855;53.204;6.568;2023-06-14T01:15:18;17.90;54.50
51801;DHT22;37855;53.204;6.568;2023-06-14T01:17:46;17.90;54.50
51801;DHT22;37855;53.204;6.568;2023-06-14T01:20:17;17.80;54.50
51801;DHT22;37855;53.204;6.568;2023-06-14T01:22:55;17.60;54.90
51801;DHT22;37855;53.204;6.568;2023-06-14T01:25:23;17.50;55.20
51801;DHT22;37855;53.204;6.568;2023-06-14T01:30:18;17.50;55.60
51801;DHT22;37855;53.204;6.568;2023-06-14T01:32:46;17.50;55.50
51801;DHT22;37855;53.204;6.568;2023-06-14T01:35:13;17.30;55.90
51801;DHT22;37855;53.204;6.568;2023-06-14T01:37:40;17.20;56.20
51801;DHT22;37855;53.204;6.568;2023-06-14T01:40:07;17.20;56.30
51801;DHT22;37855;53.204;6.568;2023-06-14T01:42:36;17.20;56.40
51801;DHT22;37855;53.204;6.568;2023-06-14T01:45:05;17.30;56.40
51801;DHT22;37855;53.204;6.568;2023-06-14T01:47:32;17.20;56.60
51801;DHT22;37855;53.204;6.568;2023-06-14T01:49:58;17.10;56.60
51801;DHT22;37855;53.204;6.568;2023-06-14T01:52:24;17.00;57.20
51801;DHT22;37855;53.204;6.568;2023-06-14T01:54:50;16.80;57.30
51801;DHT22;37855;53.204;6.568;2023-06-14T01:57:16;16.60;58.30
51801;DHT22;37855;53.204;6.568;2023-06-14T01:59:42;16.50;58.10
51801;DHT22;37855;53.204;6.568;2023-06-14T02:02:08;16.60;58.30
51801;DHT22;37855;53.204;6.568;2023-06-14T02:04:34;16.60;58.30
51801;DHT22;37855;53.204;6.568;2023-06-14T02:07:00;16.70;58.10
51801;DHT22;37855;53.204;6.568;2023-06-14T02:09:25;16.80;58.10
51801;DHT22;37855;53.204;6.568;2023-06-14T02:11:51;16.70;58.20
51801;DHT22;37855;53.204;6.568;2023-06-14T02:14:17;16.70;58.30
51801;DHT22;37855;53.204;6.568;2023-06-14T02:16:43;16.80;58.10
51801;DHT22;37855;53.204;6.568;2023-06-14T02:19:18;16.90;58.10
51801;DHT22;37855;53.204;6.568;2023-06-14T02:21:44;17.00;57.90
51801;DHT22;37855;53.204;6.568;2023-06-14T02:24:11;16.90;58.00
51801;DHT22;37855;53.204;6.568;2023-06-14T02:26:37;17.00;57.90
51801;DHT22;37855;53.204;6.568;2023-06-14T02:29:06;16.80;58.20
51801;DHT22;37855;53.204;6.568;2023-06-14T02:31:34;16.70;58.50
51801;DHT22;37855;53.204;6.568;2023-06-14T02:34:02;16.70;58.60
51801;DHT22;37855;53.204;6.568;2023-06-14T02:36:27;16.60;58.80
51801;DHT22;37855;53.204;6.568;2023-06-14T02:38:56;16.40;59.30
51801;DHT22;37855;53.204;6.568;2023-06-14T02:41:23;16.30;59.50
51801;DHT22;37855;53.204;6.568;2023-06-14T02:43:49;16.30;60.10
51801;DHT22;37855;53.204;6.568;2023-06-14T02:46:15;16.30;59.90
51801;DHT22;37855;53.204;6.568;2023-06-14T02:48:41;16.20;60.30
51801;DHT22;37855;53.204;6.568;2023-06-14T02:51:06;16.10;60.50
51801;DHT22;37855;53.204;6.568;2023-06-14T02:53:34;16.10;60.80
51801;DHT22;37855;53.204;6.568;2023-06-14T02:56:00;16.00;61.00
51801;DHT22;37855;53.204;6.568;2023-06-14T02:58:26;15.90;61.40
51801;DHT22;37855;53.204;6.568;2023-06-14T03:00:52;15.90;61.40
51801;DHT22;37855;53.204;6.568;2023-06-14T03:03:21;15.80;61.90
51801;DHT22;37855;53.204;6.568;2023-06-14T03:05:50;15.80;62.10
51801;DHT22;37855;53.204;6.568;2023-06-14T03:08:19;15.90;62.10
51801;DHT22;37855;53.204;6.568;2023-06-14T03:10:48;15.90;61.90
51801;DHT22;37855;53.204;6.568;2023-06-14T03:13:15;15.80;62.20
51801;DHT22;37855;53.204;6.568;2023-06-14T03:15:48;15.90;61.90
51801;DHT22;37855;53.204;6.568;2023-06-14T03:18:16;16.00;61.90
51801;DHT22;37855;53.204;6.568;2023-06-14T03:20:42;16.00;61.80
51801;DHT22;37855;53.204;6.568;2023-06-14T03:23:08;16.00;61.70
51801;DHT22;37855;53.204;6.568;2023-06-14T03:25:34;16.00;61.70
51801;DHT22;37855;53.204;6.568;2023-06-14T03:28:04;16.00;61.70
51801;DHT22;37855;53.204;6.568;2023-06-14T03:30:30;15.90;62.00
51801;DHT22;37855;53.204;6.568;2023-06-14T03:32:57;15.90;61.90
51801;DHT22;37855;53.204;6.568;2023-06-14T03:35:23;15.80;62.10
51801;DHT22;37855;53.204;6.568;2023-06-14T03:37:49;15.80;62.00
51801;DHT22;37855;53.204;6.568;2023-06-14T03:40:19;15.90;61.70
51801;DHT22;37855;53.204;6.568;2023-06-14T03:42:47;16.10;61.70
51801;DHT22;37855;53.204;6.568;2023-06-14T03:45:13;16.00;61.90
51801;DHT22;37855;53.204;6.568;2023-06-14T03:47:39;16.10;61.90
51801;DHT22;37855;53.204;6.568;2023-06-14T03:50:05;16.60;60.90
51801;DHT22;37855;53.204;6.568;2023-06-14T03:52:31;17.00;60.00
51801;DHT22;37855;53.204;6.568;2023-06-14T03:54:56;17.20;59.50
51801;DHT22;37855;53.204;6.568;2023-06-14T03:57:23;17.30;59.20
51801;DHT22;37855;53.204;6.568;2023-06-14T03:59:49;17.00;59.60
51801;DHT22;37855;53.204;6.568;2023-06-14T04:02:16;16.90;60.00
51801;DHT22;37855;53.204;6.568;2023-06-14T04:04:43;16.70;60.60
51801;DHT22;37855;53.204;6.568;2023-06-14T04:07:15;16.60;60.80
51801;DHT22;37855;53.204;6.568;2023-06-14T04:09:45;16.50;60.90
51801;DHT22;37855;53.204;6.568;2023-06-14T04:12:12;16.50;61.10
51801;DHT22;37855;53.204;6.568;2023-06-14T04:14:39;16.40;61.30
51801;DHT22;37855;53.204;6.568;2023-06-14T04:17:05;16.50;61.30
51801;DHT22;37855;53.204;6.568;2023-06-14T04:19:31;16.50;61.30
51801;DHT22;37855;53.204;6.568;2023-06-14T04:21:59;16.50;61.50
51801;DHT22;37855;53.204;6.568;2023-06-14T04:24:27;16.40;61.60
51801;DHT22;37855;53.204;6.568;2023-06-14T04:27:01;16.50;61.60
51801;DHT22;37855;53.204;6.568;2023-06-14T04:29:27;16.60;61.40
51801;DHT22;37855;53.204;6.568;2023-06-14T04:31:55;16.40;61.70
51801;DHT22;37855;53.204;6.568;2023-06-14T04:34:28;16.40;61.70
51801;DHT22;37855;53.204;6.568;2023-06-14T04:37:00;16.30;62.10
51801;DHT22;37855;53.204;6.568;2023-06-14T04:39:26;16.30;62.20
51801;DHT22;37855;53.204;6.568;2023-06-14T04:41:53;16.30;62.00
51801;DHT22;37855;53.204;6.568;2023-06-14T04:44:23;16.20;62.40
51801;DHT22;37855;53.204;6.568;2023-06-14T04:46:49;16.20;62.30
51801;DHT22;37855;53.204;6.568;2023-06-14T04:49:16;16.40;62.20
51801;DHT22;37855;53.204;6.568;2023-06-14T04:51:45;16.20;62.50
51801;DHT22;37855;53.204;6.568;2023-06-14T04:54:11;16.30;62.20
51801;DHT22;37855;53.204;6.568;2023-06-14T04:56:41;16.40;61.90
51801;DHT22;37855;53.204;6.568;2023-06-14T04:59:08;16.50;61.80
51801;DHT22;37855;53.204;6.568;2023-06-14T05:01:34;16.50;61.80
51801;DHT22;37855;53.204;6.568;2023-06-14T05:04:01;16.70;61.60
51801;DHT22;37855;53.204;6.568;2023-06-14T05:06:26;16.70;61.50
51801;DHT22;37855;53.204;6.568;2023-06-14T05:08:53;16.80;61.20
51801;DHT22;37855;53.204;6.568;2023-06-14T05:11:19;16.80;61.30
51801;DHT22;37855;53.204;6.568;2023-06-14T05:13:45;16.60;61.50
51801;DHT22;37855;53.204;6.568;2023-06-14T05:16:12;16.80;61.20
51801;DHT22;37855;53.204;6.568;2023-06-14T05:18:37;16.60;61.60
51801;DHT22;37855;53.204;6.568;2023-06-14T05:21:03;16.70;61.40
51801;DHT22;37855;53.204;6.568;2023-06-14T05:23:32;16.90;61.10
51801;DHT22;37855;53.204;6.568;2023-06-14T05:25:58;17.10;60.80
51801;DHT22;37855;53.204;6.568;2023-06-14T05:28:24;17.10;60.70
51801;DHT22;37855;53.204;6.568;2023-06-14T05:30:50;17.10;60.80
51801;DHT22;37855;53.204;6.568;2023-06-14T05:33:16;17.00;60.90
51801;DHT22;37855;53.204;6.568;2023-06-14T05:35:42;17.00;61.00
51801;DHT22;37855;53.204;6.568;2023-06-14T05:38:08;17.10;60.90
51801;DHT22;37855;53.204;6.568;2023-06-14T05:40:34;17.10;60.70
51801;DHT22;37855;53.204;6.568;2023-06-14T05:42:59;17.10;60.90
51801;DHT22;37855;53.204;6.568;2023-06-14T05:45:26;17.20;60.70
51801;DHT22;37855;53.204;6.568;2023-06-14T05:47:52;17.40;60.60
51801;DHT22;37855;53.204;6.568;2023-06-14T05:50:20;17.40;60.10
51801;DHT22;37855;53.204;6.568;2023-06-14T05:52:46;17.50;60.10
51801;DHT22;37855;53.204;6.568;2023-06-14T05:55:16;17.50;60.30
51801;DHT22;37855;53.204;6.568;2023-06-14T05:57:42;17.50;60.20
51801;DHT22;37855;53.204;6.568;2023-06-14T06:00:08;17.70;60.10
51801;DHT22;37855;53.204;6.568;2023-06-14T06:02:37;17.90;59.80
51801;DHT22;37855;53.204;6.568;2023-06-14T06:05:02;18.10;58.80
51801;DHT22;37855;53.204;6.568;2023-06-14T06:07:29;18.30;59.00
51801;DHT22;37855;53.204;6.568;2023-06-14T06:09:55;18.40;58.70
51801;DHT22;37855;53.204;6.568;2023-06-14T06:12:21;18.50;58.00
51801;DHT22;37855;53.204;6.568;2023-06-14T06:14:46;18.50;58.10
51801;DHT22;37855;53.204;6.568;2023-06-14T06:17:12;18.60;57.80
51801;DHT22;37855;53.204;6.568;2023-06-14T06:19:38;18.70;57.90
51801;DHT22;37855;53.204;6.568;2023-06-14T06:22:03;18.80;58.00
51801;DHT22;37855;53.204;6.568;2023-06-14T06:24:32;18.80;57.50
51801;DHT22;37855;53.204;6.568;2023-06-14T06:26:57;18.80;57.60
51801;DHT22;37855;53.204;6.568;2023-06-14T06:29:23;18.90;57.50
51801;DHT22;37855;53.204;6.568;2023-06-14T06:31:49;18.90;57.40
51801;DHT22;37855;53.204;6.568;2023-06-14T06:34:14;18.90;57.40
51801;DHT22;37855;53.204;6.568;2023-06-14T06:36:40;18.80;57.40
51801;DHT22;37855;53.204;6.568;2023-06-14T06:39:07;18.90;57.40
51801;DHT22;37855;53.204;6.568;2023-06-14T06:41:37;19.20;57.30
51801;DHT22;37855;53.204;6.568;2023-06-14T06:44:05;19.40;56.90
51801;DHT22;37855;53.204;6.568;2023-06-14T06:46:32;19.50;56.30
51801;DHT22;37855;53.204;6.568;2023-06-14T06:49:05;19.40;56.20
51801;DHT22;37855;53.204;6.568;2023-06-14T06:51:31;19.50;56.30
51801;DHT22;37855;53.204;6.568;2023-06-14T06:53:56;19.60;56.30
51801;DHT22;37855;53.204;6.568;2023-06-14T06:56:23;19.60;55.90
51801;DHT22;37855;53.204;6.568;2023-06-14T06:58:52;19.80;55.90
51801;DHT22;37855;53.204;6.568;2023-06-14T07:01:18;19.90;55.40
51801;DHT22;37855;53.204;6.568;2023-06-14T07:03:45;19.90;54.60
51801;DHT22;37855;53.204;6.568;2023-06-14T07:06:14;20.00;54.90
51801;DHT22;37855;53.204;6.568;2023-06-14T07:08:39;20.00;54.80
51801;DHT22;37855;53.204;6.568;2023-06-14T07:11:05;20.20;54.70
51801;DHT22;37855;53.204;6.568;2023-06-14T07:13:31;20.30;53.50
51801;DHT22;37855;53.204;6.568;2023-06-14T07:15:58;20.40;54.30
51801;DHT22;37855;53.204;6.568;2023-06-14T07:18:24;20.50;53.60
51801;DHT22;37855;53.204;6.568;2023-06-14T07:20:50;20.50;53.00
51801;DHT22;37855;53.204;6.568;2023-06-14T07:23:15;20.50;53.10
51801;DHT22;37855;53.204;6.568;2023-06-14T07:25:41;20.50;53.00
51801;DHT22;37855;53.204;6.568;2023-06-14T07:28:07;20.60;53.00
51801;DHT22;37855;53.204;6.568;2023-06-14T07:30:33;20.70;53.20
51801;DHT22;37855;53.204;6.568;2023-06-14T07:32:58;20.70;52.10
51801;DHT22;37855;53.204;6.568;2023-06-14T07:35:24;20.80;52.50
51801;DHT22;37855;53.204;6.568;2023-06-14T07:37:50;20.90;52.60
51801;DHT22;37855;53.204;6.568;2023-06-14T07:40:15;21.00;52.60
51801;DHT22;37855;53.204;6.568;2023-06-14T07:42:44;21.10;52.40
51801;DHT22;37855;53.204;6.568;2023-06-14T07:45:15;21.20;52.10
51801;DHT22;37855;53.204;6.568;2023-06-14T07:47:41;21.20;51.60
51801;DHT22;37855;53.204;6.568;2023-06-14T07:50:07;21.30;51.70
51801;DHT22;37855;53.204;6.568;2023-06-14T07:52:33;21.30;51.70
51801;DHT22;37855;53.204;6.568;2023-06-14T07:54:58;21.30;51.10
51801;DHT22;37855;53.204;6.568;2023-06-14T07:57:24;21.40;51.00
51801;DHT22;37855;53.204;6.568;2023-06-14T07:59:50;21.50;51.10
51801;DHT22;37855;53.204;6.568;2023-06-14T08:02:16;21.40;51.00
51801;DHT22;37855;53.204;6.568;2023-06-14T08:04:42;21.50;50.40
51801;DHT22;37855;53.204;6.568;2023-06-14T08:07:08;21.50;51.00
51801;DHT22;37855;53.204;6.568;2023-06-14T08:09:35;21.40;50.80
51801;DHT22;37855;53.204;6.568;2023-06-14T08:12:07;21.50;51.20
51801;DHT22;37855;53.204;6.568;2023-06-14T08:14:35;21.60;50.20
51801;DHT22;37855;53.204;6.568;2023-06-14T08:17:01;21.60;50.80
51801;DHT22;37855;53.204;6.568;2023-06-14T08:19:27;21.70;49.70
51801;DHT22;37855;53.204;6.568;2023-06-14T08:21:52;21.70;50.40
51801;DHT22;37855;53.204;6.568;2023-06-14T08:24:21;21.80;50.60
51801;DHT22;37855;53.204;6.568;2023-06-14T08:26:50;21.80;50.10
51801;DHT22;37855;53.204;6.568;2023-06-14T08:29:15;21.70;50.10
51801;DHT22;37855;53.204;6.568;2023-06-14T08:31:45;21.80;50.40
51801;DHT22;37855;53.204;6.568;2023-06-14T08:34:11;21.90;49.40
51801;DHT22;37855;53.204;6.568;2023-06-14T08:36:36;21.90;50.10
51801;DHT22;37855;53.204;6.568;2023-06-14T08:39:02;22.00;48.90
51801;DHT22;37855;53.204;6.568;2023-06-14T08:41:28;22.00;49.90
51801;DHT22;37855;53.204;6.568;2023-06-14T08:43:56;22.10;49.20
51801;DHT22;37855;53.204;6.568;2023-06-14T08:46:25;22.20;48.70
51801;DHT22;37855;53.204;6.568;2023-06-14T08:48:54;22.20;49.00
51801;DHT22;37855;53.204;6.568;2023-06-14T08:51:22;22.40;49.30
51801;DHT22;37855;53.204;6.568;2023-06-14T08:53:54;22.40;49.10
51801;DHT22;37855;53.204;6.568;2023-06-14T08:56:26;22.40;48.20
51801;DHT22;37855;53.204;6.568;2023-06-14T08:58:57;22.40;47.50
51801;DHT22;37855;53.204;6.568;2023-06-14T09:01:23;22.30;48.40
51801;DHT22;37855;53.204;6.568;2023-06-14T09:03:50;22.40;48.60
51801;DHT22;37855;53.204;6.568;2023-06-14T09:06:18;22.40;47.60
51801;DHT22;37855;53.204;6.568;2023-06-14T09:08:46;22.40;48.50
51801;DHT22;37855;53.204;6.568;2023-06-14T09:11:13;22.30;48.20
51801;DHT22;37855;53.204;6.568;2023-06-14T09:13:40;22.20;48.80
51801;DHT22;37855;53.204;6.568;2023-06-14T09:16:07;22.30;49.30
51801;DHT22;37855;53.204;6.568;2023-06-14T09:18:37;22.30;49.20
51801;DHT22;37855;53.204;6.568;2023-06-14T09:21:05;22.40;49.50
51801;DHT22;37855;53.204;6.568;2023-06-14T09:23:36;22.40;48.90
51801;DHT22;37855;53.204;6.568;2023-06-14T09:26:09;22.30;49.40
51801;DHT22;37855;53.204;6.568;2023-06-14T09:28:36;22.40;49.40
51801;DHT22;37855;53.204;6.568;2023-06-14T09:31:02;22.50;48.70
51801;DHT22;37855;53.204;6.568;2023-06-14T09:33:27;22.60;48.50
51801;DHT22;37855;53.204;6.568;2023-06-14T09:35:54;22.60;48.70
51801;DHT22;37855;53.204;6.568;2023-06-14T09:38:20;22.70;47.90
51801;DHT22;37855;53.204;6.568;2023-06-14T09:40:46;22.70;47.10
51801;DHT22;37855;53.204;6.568;2023-06-14T09:43:12;22.50;48.00
51801;DHT22;37855;53.204;6.568;2023-06-14T09:45:39;22.60;48.10
51801;DHT22;37855;53.204;6.568;2023-06-14T09:48:08;22.70;48.40
51801;DHT22;37855;53.204;6.568;2023-06-14T09:50:34;22.70;47.80
51801;DHT22;37855;53.204;6.568;2023-06-14T09:53:07;22.70;48.00
51801;DHT22;37855;53.204;6.568;2023-06-14T09:55:37;22.70;48.40
51801;DHT22;37855;53.204;6.568;2023-06-14T09:58:06;22.70;48.20
51801;DHT22;37855;53.204;6.568;2023-06-14T10:00:33;22.80;48.00
51801;DHT22;37855;53.204;6.568;2023-06-14T10:03:16;22.80;47.50
51801;DHT22;37855;53.204;6.568;2023-06-14T10:05:47;22.80;47.60
51801;DHT22;37855;53.204;6.568;2023-06-14T10:08:15;22.80;47.50
51801;DHT22;37855;53.204;6.568;2023-06-14T10:10:43;22.70;47.00
51801;DHT22;37855;53.204;6.568;2023-06-14T10:13:14;22.60;46.90
51801;DHT22;37855;53.204;6.568;2023-06-14T10:15:48;22.50;47.40
51801;DHT22;37855;53.204;6.568;2023-06-14T10:18:35;22.70;47.60
51801;DHT22;37855;53.204;6.568;2023-06-14T10:21:32;22.80;47.40
51801;DHT22;37855;53.204;6.568;2023-06-14T10:23:56;22.90;47.00
51801;DHT22;37855;53.204;6.568;2023-06-14T10:26:23;22.90;47.10
51801;DHT22;37855;53.204;6.568;2023-06-14T10:29:09;23.10;47.30
51801;DHT22;37855;53.204;6.568;2023-06-14T10:31:55;23.20;46.80
51801;DHT22;37855;53.204;6.568;2023-06-14T10:34:26;23.00;46.60
51801;DHT22;37855;53.204;6.568;2023-06-14T10:37:06;22.90;46.50
51801;DHT22;37855;53.204;6.568;2023-06-14T10:39:40;23.00;46.90
51801;DHT22;37855;53.204;6.568;2023-06-14T10:42:07;23.20;47.20
51801;DHT22;37855;53.204;6.568;2023-06-14T10:47:10;23.30;46.80
51801;DHT22;37855;53.204;6.568;2023-06-14T10:49:44;23.30;46.70
51801;DHT22;37855;53.204;6.568;2023-06-14T10:52:16;23.40;46.80
51801;DHT22;37855;53.204;6.568;2023-06-14T10:57:30;23.30;47.10
51801;DHT22;37855;53.204;6.568;2023-06-14T11:00:03;23.50;46.80
51801;DHT22;37855;53.204;6.568;2023-06-14T11:05:51;23.60;46.30
51801;DHT22;37855;53.204;6.568;2023-06-14T11:11:07;23.70;45.80
51801;DHT22;37855;53.204;6.568;2023-06-14T11:13:32;23.80;45.30
51801;DHT22;37855;53.204;6.568;2023-06-14T11:16:01;23.80;45.30
51801;DHT22;37855;53.204;6.568;2023-06-14T11:18:28;23.80;45.50
51801;DHT22;37855;53.204;6.568;2023-06-14T11:20:54;23.70;45.50
51801;DHT22;37855;53.204;6.568;2023-06-14T11:23:21;23.80;45.90
51801;DHT22;37855;53.204;6.568;2023-06-14T11:25:53;23.60;45.50
51801;DHT22;37855;53.204;6.568;2023-06-14T11:28:19;23.50;45.20
51801;DHT22;37855;53.204;6.568;2023-06-14T11:30:47;23.60;45.70
51801;DHT22;37855;53.204;6.568;2023-06-14T11:33:18;23.60;45.20
51801;DHT22;37855;53.204;6.568;2023-06-14T11:35:47;23.50;45.00
51801;DHT22;37855;53.204;6.568;2023-06-14T11:38:13;23.60;44.90
51801;DHT22;37855;53.204;6.568;2023-06-14T11:40:39;23.70;44.80
51801;DHT22;37855;53.204;6.568;2023-06-14T11:43:04;23.80;44.90
51801;DHT22;37855;53.204;6.568;2023-06-14T11:45:31;24.00;45.30
51801;DHT22;37855;53.204;6.568;2023-06-14T11:47:58;24.10;45.10
51801;DHT22;37855;53.204;6.568;2023-06-14T11:50:24;24.20;44.60
51801;DHT22;37855;53.204;6.568;2023-06-14T11:52:57;24.20;43.50
51801;DHT22;37855;53.204;6.568;2023-06-14T11:55:25;24.00;43.50
51801;DHT22;37855;53.204;6.568;2023-06-14T11:57:56;24.10;43.50
51801;DHT22;37855;53.204;6.568;2023-06-14T12:00:26;24.10;43.80
51801;DHT22;37855;53.204;6.568;2023-06-14T12:02:53;24.10;43.40
51801;DHT22;37855;53.204;6.568;2023-06-14T12:05:22;24.20;43.20
51801;DHT22;37855;53.204;6.568;2023-06-14T12:07:48;24.20;43.50
51801;DHT22;37855;53.204;6.568;2023-06-14T12:10:14;24.20;43.90
51801;DHT22;37855;53.204;6.568;2023-06-14T12:12:40;24.40;43.80
51801;DHT22;37855;53.204;6.568;2023-06-14T12:15:08;24.50;43.70
51801;DHT22;37855;53.204;6.568;2023-06-14T12:17:37;24.50;43.70
51801;DHT22;37855;53.204;6.568;2023-06-14T12:20:13;24.50;43.30
51801;DHT22;37855;53.204;6.568;2023-06-14T12:22:53;24.50;43.50
51801;DHT22;37855;53.204;6.568;2023-06-14T12:25:32;24.50;43.00
51801;DHT22;37855;53.204;6.568;2023-06-14T12:27:59;24.70;42.90
51801;DHT22;37855;53.204;6.568;2023-06-14T12:30:25;24.90;42.70
51801;DHT22;37855;53.204;6.568;2023-06-14T12:32:50;25.00;43.00
51801;DHT22;37855;53.204;6.568;2023-06-14T12:35:17;25.20;43.00
51801;DHT22;37855;53.204;6.568;2023-06-14T12:37:44;25.30;42.70
51801;DHT22;37855;53.204;6.568;2023-06-14T12:40:11;25.30;42.20
51801;DHT22;37855;53.204;6.568;2023-06-14T12:42:37;25.20;41.80
51801;DHT22;37855;53.204;6.568;2023-06-14T12:45:06;25.20;42.30
51801;DHT22;37855;53.204;6.568;2023-06-14T12:47:32;25.40;42.30
51801;DHT22;37855;53.204;6.568;2023-06-14T12:49:57;25.50;42.30
51801;DHT22;37855;53.204;6.568;2023-06-14T12:52:23;25.50;42.40
51801;DHT22;37855;53.204;6.568;2023-06-14T12:54:49;25.40;42.40
51801;DHT22;37855;53.204;6.568;2023-06-14T12:57:15;25.40;42.10
51801;DHT22;37855;53.204;6.568;2023-06-14T12:59:41;25.20;42.00
51801;DHT22;37855;53.204;6.568;2023-06-14T13:02:13;25.20;41.90
51801;DHT22;37855;53.204;6.568;2023-06-14T13:04:39;25.10;42.00
51801;DHT22;37855;53.204;6.568;2023-06-14T13:07:05;25.10;42.10
51801;DHT22;37855;53.204;6.568;2023-06-14T13:09:31;25.10;41.70
51801;DHT22;37855;53.204;6.568;2023-06-14T13:11:56;25.00;42.20
51801;DHT22;37855;53.204;6.568;2023-06-14T13:14:22;25.20;42.40
51801;DHT22;37855;53.204;6.568;2023-06-14T13:16:48;25.20;42.10
51801;DHT22;37855;53.204;6.568;2023-06-14T13:19:13;25.30;42.50
51801;DHT22;37855;53.204;6.568;2023-06-14T13:21:39;25.60;42.50
51801;DHT22;37855;53.204;6.568;2023-06-14T13:24:05;25.60;41.60
51801;DHT22;37855;53.204;6.568;2023-06-14T13:26:32;25.70;41.50
51801;DHT22;37855;53.204;6.568;2023-06-14T13:28:58;25.70;42.00
51801;DHT22;37855;53.204;6.568;2023-06-14T13:31:24;25.50;41.80
51801;DHT22;37855;53.204;6.568;2023-06-14T13:33:49;25.60;42.10
51801;DHT22;37855;53.204;6.568;2023-06-14T13:36:15;25.80;42.10
51801;DHT22;37855;53.204;6.568;2023-06-14T13:38:41;25.90;41.40
51801;DHT22;37855;53.204;6.568;2023-06-14T13:41:07;25.90;41.80
51801;DHT22;37855;53.204;6.568;2023-06-14T13:43:32;25.80;42.00
51801;DHT22;37855;53.204;6.568;2023-06-14T13:45:58;25.70;42.10
51801;DHT22;37855;53.204;6.568;2023-06-14T13:48:24;25.50;42.00
51801;DHT22;37855;53.204;6.568;2023-06-14T13:50:50;25.60;42.30
51801;DHT22;37855;53.204;6.568;2023-06-14T13:53:15;25.50;41.90
51801;DHT22;37855;53.204;6.568;2023-06-14T13:55:41;25.60;42.20
51801;DHT22;37855;53.204;6.568;2023-06-14T13:58:07;25.80;42.10
51801;DHT22;37855;53.204;6.568;2023-06-14T14:00:33;25.80;41.10
51801;DHT22;37855;53.204;6.568;2023-06-14T14:02:59;25.70;41.70
51801;DHT22;37855;53.204;6.568;2023-06-14T14:05:25;25.70;41.20
51801;DHT22;37855;53.204;6.568;2023-06-14T14:07:55;25.60;41.80
51801;DHT22;37855;53.204;6.568;2023-06-14T14:10:23;25.70;41.60
51801;DHT22;37855;53.204;6.568;2023-06-14T14:12:50;25.80;41.10
51801;DHT22;37855;53.204;6.568;2023-06-14T14:15:17;25.80;41.60
51801;DHT22;37855;53.204;6.568;2023-06-14T14:17:42;25.80;41.50
51801;DHT22;37855;53.204;6.568;2023-06-14T14:20:08;25.50;41.40
51801;DHT22;37855;53.204;6.568;2023-06-14T14:22:34;25.00;41.90
51801;DHT22;37855;53.204;6.568;2023-06-14T14:25:00;25.20;42.00
51801;DHT22;37855;53.204;6.568;2023-06-14T14:27:26;25.20;41.80
51801;DHT22;37855;53.204;6.568;2023-06-14T14:29:51;25.30;41.80
51801;DHT22;37855;53.204;6.568;2023-06-14T14:32:17;25.50;41.70
51801;DHT22;37855;53.204;6.568;2023-06-14T14:34:43;25.50;41.40
51801;DHT22;37855;53.204;6.568;2023-06-14T14:37:08;25.60;41.10
51801;DHT22;37855;53.204;6.568;2023-06-14T14:39:36;25.70;41.40
51801;DHT22;37855;53.204;6.568;2023-06-14T14:42:02;25.90;41.50
51801;DHT22;37855;53.204;6.568;2023-06-14T14:44:27;25.70;41.30
51801;DHT22;37855;53.204;6.568;2023-06-14T14:46:53;25.40;41.60
51801;DHT22;37855;53.204;6.568;2023-06-14T14:49:18;25.30;41.40
51801;DHT22;37855;53.204;6.568;2023-06-14T14:51:44;25.20;41.50
51801;DHT22;37855;53.204;6.568;2023-06-14T14:54:10;25.20;41.70
51801;DHT22;37855;53.204;6.568;2023-06-14T14:56:36;25.40;41.30
51801;DHT22;37855;53.204;6.568;2023-06-14T14:59:06;25.50;41.60
51801;DHT22;37855;53.204;6.568;2023-06-14T15:01:32;25.50;41.20
51801;DHT22;37855;53.204;6.568;2023-06-14T15:04:01;25.60;41.10
51801;DHT22;37855;53.204;6.568;2023-06-14T15:06:26;25.70;40.60
51801;DHT22;37855;53.204;6.568;2023-06-14T15:08:53;25.80;40.80
51801;DHT22;37855;53.204;6.568;2023-06-14T15:11:19;26.00;40.90
51801;DHT22;37855;53.204;6.568;2023-06-14T15:13:44;26.20;40.80
51801;DHT22;37855;53.204;6.568;2023-06-14T15:16:10;26.40;40.90
51801;DHT22;37855;53.204;6.568;2023-06-14T15:18:36;26.30;40.60
51801;DHT22;37855;53.204;6.568;2023-06-14T15:21:02;26.50;40.50
51801;DHT22;37855;53.204;6.568;2023-06-14T15:23:28;26.30;40.50
51801;DHT22;37855;53.204;6.568;2023-06-14T15:25:54;26.30;40.80
51801;DHT22;37855;53.204;6.568;2023-06-14T15:28:19;26.30;40.50
51801;DHT22;37855;53.204;6.568;2023-06-14T15:30:47;26.10;40.30
51801;DHT22;37855;53.204;6.568;2023-06-14T15:33:12;25.90;40.70
51801;DHT22;37855;53.204;6.568;2023-06-14T15:35:38;25.70;40.50
51801;DHT22;37855;53.204;6.568;2023-06-14T15:38:03;25.70;41.10
51801;DHT22;37855;53.204;6.568;2023-06-14T15:40:29;25.60;40.80
51801;DHT22;37855;53.204;6.568;2023-06-14T15:42:55;25.50;40.90
51801;DHT22;37855;53.204;6.568;2023-06-14T15:45:20;25.30;41.00
51801;DHT22;37855;53.204;6.568;2023-06-14T15:47:49;25.40;41.50